sensor_id;sensor_type;location;lat;lon;timestamp;P1;durP1;ratioP1;P2;durP2;ratioP2
25535;SDS011;13431;51.352;6.412;2023-02-01T00:01:04;21.42;;;9.07;;
25535;SDS011;13431;51.352;6.412;2023-02-01T00:03:33;20.35;;;9.15;;
25535;SDS011;13431;51.352;6.412;2023-02-01T00:06:00;13.40;;;8.05;;
25535;SDS011;13431;51.352;6.412;2023-02-01T00:08:28;19.63;;;8.32;;
25535;SDS011;13431;51.352;6.412;2023-02-01T00:11:03;18.73;;;8.32;;
25535;SDS011;13431;51.352;6.412;2023-02-01T00:13:33;19.23;;;8.93;;
25535;SDS011;13431;51.352;6.412;2023-02-01T00:16:05;11.20;;;7.97;;
25535;SDS011;13431;51.352;6.412;2023-02-01T00:18:34;18.40;;;10.10;;
25535;SDS011;13431;51.352;6.412;2023-02-01T00:21:01;21.13;;;10.52;;
25535;SDS011;13431;51.352;6.412;2023-02-01T00:23:31;19.33;;;10.45;;
25535;SDS011;13431;51.352;6.412;2023-02-01T00:26:05;17.35;;;9.27;;
25535;SDS011;13431;51.352;6.412;2023-02-01T00:28:33;20.33;;;10.02;;
25535;SDS011;13431;51.352;6.412;2023-02-01T00:31:02;15.43;;;9.50;;
25535;SDS011;13431;51.352;6.412;2023-02-01T00:33:31;12.88;;;8.27;;
25535;SDS011;13431;51.352;6.412;2023-02-01T00:36:01;17.60;;;9.20;;
25535;SDS011;13431;51.352;6.412;2023-02-01T00:38:33;18.33;;;8.65;;
25535;SDS011;13431;51.352;6.412;2023-02-01T00:43:40;15.68;;;9.23;;
25535;SDS011;13431;51.352;6.412;2023-02-01T00:46:08;13.38;;;8.05;;
25535;SDS011;13431;51.352;6.412;2023-02-01T00:48:36;21.80;;;9.32;;
25535;SDS011;13431;51.352;6.412;2023-02-01T00:51:05;14.75;;;7.72;;
25535;SDS011;13431;51.352;6.412;2023-02-01T00:53:34;14.90;;;8.35;;
25535;SDS011;13431;51.352;6.412;2023-02-01T00:56:02;12.82;;;6.68;;
25535;SDS011;13431;51.352;6.412;2023-02-01T00:58:34;13.40;;;6.70;;
25535;SDS011;13431;51.352;6.412;2023-02-01T01:03:42;19.70;;;7.50;;
25535;SDS011;13431;51.352;6.412;2023-02-01T01:06:13;12.18;;;6.13;;
25535;SDS011;13431;51.352;6.412;2023-02-01T01:08:42;15.88;;;6.55;;
25535;SDS011;13431;51.352;6.412;2023-02-01T01:13:39;10.88;;;6.13;;
25535;SDS011;13431;51.352;6.412;2023-02-01T01:16:08;17.73;;;7.05;;
25535;SDS011;13431;51.352;6.412;2023-02-01T01:18:37;15.48;;;6.63;;
25535;SDS011;13431;51.352;6.412;2023-02-01T01:21:05;16.15;;;6.22;;
25535;SDS011;13431;51.352;6.412;2023-02-01T01:23:34;15.25;;;5.65;;
25535;SDS011;13431;51.352;6.412;2023-02-01T01:26:09;16.48;;;6.25;;
25535;SDS011;13431;51.352;6.412;2023-02-01T01:28:40;16.33;;;5.32;;
25535;SDS011;13431;51.352;6.412;2023-02-01T01:31:11;11.07;;;4.68;;
25535;SDS011;13431;51.352;6.412;2023-02-01T01:33:40;13.55;;;4.43;;
25535;SDS011;13431;51.352;6.412;2023-02-01T01:36:08;11.15;;;4.40;;
25535;SDS011;13431;51.352;6.412;2023-02-01T01:38:38;14.90;;;5.68;;
25535;SDS011;13431;51.352;6.412;2023-02-01T01:41:06;13.52;;;4.15;;
25535;SDS011;13431;51.352;6.412;2023-02-01T01:43:52;13.75;;;5.13;;
25535;SDS011;13431;51.352;6.412;2023-02-01T01:46:36;16.42;;;4.85;;
25535;SDS011;13431;51.352;6.412;2023-02-01T01:51:40;11.73;;;4.40;;
25535;SDS011;13431;51.352;6.412;2023-02-01T01:54:37;11.43;;;4.65;;
25535;SDS011;13431;51.352;6.412;2023-02-01T01:57:11;13.38;;;5.75;;
25535;SDS011;13431;51.352;6.412;2023-02-01T01:59:46;11.40;;;3.67;;
25535;SDS011;13431;51.352;6.412;2023-02-01T02:02:19;15.13;;;4.53;;
25535;SDS011;13431;51.352;6.412;2023-02-01T02:04:47;16.13;;;9.30;;
25535;SDS011;13431;51.352;6.412;2023-02-01T02:07:16;14.73;;;5.35;;
25535;SDS011;13431;51.352;6.412;2023-02-01T02:09:46;17.42;;;4.32;;
25535;SDS011;13431;51.352;6.412;2023-02-01T02:12:26;15.05;;;4.07;;
25535;SDS011;13431;51.352;6.412;2023-02-01T02:14:55;18.60;;;4.82;;
25535;SDS011;13431;51.352;6.412;2023-02-01T02:20:11;11.38;;;4.03;;
25535;SDS011;13431;51.352;6.412;2023-02-01T02:47:13;12.85;;;5.22;;
25535;SDS011;13431;51.352;6.412;2023-02-01T02:50:08;15.68;;;5.05;;
25535;SDS011;13431;51.352;6.412;2023-02-01T02:53:03;17.45;;;5.07;;
25535;SDS011;13431;51.352;6.412;2023-02-01T02:55:55;13.13;;;6.07;;
25535;SDS011;13431;51.352;6.412;2023-02-01T02:58:42;18.13;;;5.18;;
25535;SDS011;13431;51.352;6.412;2023-02-01T03:01:30;18.55;;;8.85;;
25535;SDS011;13431;51.352;6.412;2023-02-01T03:04:18;16.27;;;4.95;;
25535;SDS011;13431;51.352;6.412;2023-02-01T03:06:48;16.77;;;5.28;;
25535;SDS011;13431;51.352;6.412;2023-02-01T03:09:18;16.90;;;4.97;;
25535;SDS011;13431;51.352;6.412;2023-02-01T03:14:46;20.27;;;5.50;;
25535;SDS011;13431;51.352;6.412;2023-02-01T03:17:19;25.77;;;6.47;;
25535;SDS011;13431;51.352;6.412;2023-02-01T03:19:52;13.25;;;5.72;;
25535;SDS011;13431;51.352;6.412;2023-02-01T03:22:22;17.10;;;5.78;;
25535;SDS011;13431;51.352;6.412;2023-02-01T03:27:34;10.68;;;4.82;;
25535;SDS011;13431;51.352;6.412;2023-02-01T03:30:10;13.52;;;5.45;;
25535;SDS011;13431;51.352;6.412;2023-02-01T03:33:00;17.85;;;6.20;;
25535;SDS011;13431;51.352;6.412;2023-02-01T03:35:33;15.30;;;5.82;;
25535;SDS011;13431;51.352;6.412;2023-02-01T03:38:23;19.05;;;5.20;;
25535;SDS011;13431;51.352;6.412;2023-02-01T03:41:15;14.82;;;5.70;;
25535;SDS011;13431;51.352;6.412;2023-02-01T03:43:48;16.05;;;5.45;;
25535;SDS011;13431;51.352;6.412;2023-02-01T03:46:32;23.08;;;7.85;;
25535;SDS011;13431;51.352;6.412;2023-02-01T03:49:08;14.95;;;5.90;;
25535;SDS011;13431;51.352;6.412;2023-02-01T03:51:38;13.60;;;5.57;;
25535;SDS011;13431;51.352;6.412;2023-02-01T03:54:09;15.52;;;5.80;;
25535;SDS011;13431;51.352;6.412;2023-02-01T03:56:41;19.83;;;5.57;;
25535;SDS011;13431;51.352;6.412;2023-02-01T03:59:11;23.38;;;5.70;;
25535;SDS011;13431;51.352;6.412;2023-02-01T04:01:40;14.05;;;5.25;;
25535;SDS011;13431;51.352;6.412;2023-02-01T04:04:07;16.60;;;5.50;;
25535;SDS011;13431;51.352;6.412;2023-02-01T04:06:37;12.95;;;5.03;;
25535;SDS011;13431;51.352;6.412;2023-02-01T04:09:05;18.08;;;5.15;;
25535;SDS011;13431;51.352;6.412;2023-02-01T04:11:32;21.77;;;5.80;;
25535;SDS011;13431;51.352;6.412;2023-02-01T04:13:59;17.38;;;5.45;;
25535;SDS011;13431;51.352;6.412;2023-02-01T04:16:31;12.63;;;4.95;;
25535;SDS011;13431;51.352;6.412;2023-02-01T04:18:59;14.20;;;4.78;;
25535;SDS011;13431;51.352;6.412;2023-02-01T04:21:27;15.43;;;4.97;;
25535;SDS011;13431;51.352;6.412;2023-02-01T04:23:55;22.52;;;5.28;;
25535;SDS011;13431;51.352;6.412;2023-02-01T04:26:22;20.27;;;5.47;;
25535;SDS011;13431;51.352;6.412;2023-02-01T04:28:49;18.23;;;4.55;;
25535;SDS011;13431;51.352;6.412;2023-02-01T04:31:17;12.45;;;4.32;;
25535;SDS011;13431;51.352;6.412;2023-02-01T04:33:52;12.98;;;4.15;;
25535;SDS011;13431;51.352;6.412;2023-02-01T04:36:21;15.77;;;4.95;;
25535;SDS011;13431;51.352;6.412;2023-02-01T04:38:49;17.92;;;5.47;;
25535;SDS011;13431;51.352;6.412;2023-02-01T04:41:17;20.20;;;4.85;;
25535;SDS011;13431;51.352;6.412;2023-02-01T04:43:46;24.25;;;5.47;;
25535;SDS011;13431;51.352;6.412;2023-02-01T04:46:14;17.00;;;4.10;;
25535;SDS011;13431;51.352;6.412;2023-02-01T04:48:41;20.73;;;4.70;;
25535;SDS011;13431;51.352;6.412;2023-02-01T04:51:09;16.50;;;4.85;;
25535;SDS011;13431;51.352;6.412;2023-02-01T04:53:37;19.92;;;5.03;;
25535;SDS011;13431;51.352;6.412;2023-02-01T04:56:04;13.63;;;4.75;;
25535;SDS011;13431;51.352;6.412;2023-02-01T04:58:32;17.48;;;6.32;;
25535;SDS011;13431;51.352;6.412;2023-02-01T05:01:02;20.73;;;5.80;;
25535;SDS011;13431;51.352;6.412;2023-02-01T05:03:31;14.65;;;4.18;;
25535;SDS011;13431;51.352;6.412;2023-02-01T05:05:59;15.13;;;4.68;;
25535;SDS011;13431;51.352;6.412;2023-02-01T05:08:27;16.65;;;4.68;;
25535;SDS011;13431;51.352;6.412;2023-02-01T05:10:55;19.15;;;5.18;;
25535;SDS011;13431;51.352;6.412;2023-02-01T05:13:22;16.15;;;4.47;;
25535;SDS011;13431;51.352;6.412;2023-02-01T05:16:08;20.60;;;5.15;;
25535;SDS011;13431;51.352;6.412;2023-02-01T05:18:36;15.13;;;5.78;;
25535;SDS011;13431;51.352;6.412;2023-02-01T05:21:03;21.77;;;5.20;;
25535;SDS011;13431;51.352;6.412;2023-02-01T05:23:30;13.52;;;4.38;;
25535;SDS011;13431;51.352;6.412;2023-02-01T05:26:01;15.40;;;4.47;;
25535;SDS011;13431;51.352;6.412;2023-02-01T05:28:28;19.70;;;6.60;;
25535;SDS011;13431;51.352;6.412;2023-02-01T05:30:56;16.30;;;5.10;;
25535;SDS011;13431;51.352;6.412;2023-02-01T05:33:23;15.38;;;5.05;;
25535;SDS011;13431;51.352;6.412;2023-02-01T05:35:51;16.42;;;4.63;;
25535;SDS011;13431;51.352;6.412;2023-02-01T05:38:18;21.00;;;4.47;;
25535;SDS011;13431;51.352;6.412;2023-02-01T05:40:45;15.55;;;4.10;;
25535;SDS011;13431;51.352;6.412;2023-02-01T05:43:16;17.90;;;4.03;;
25535;SDS011;13431;51.352;6.412;2023-02-01T05:45:43;17.48;;;4.57;;
25535;SDS011;13431;51.352;6.412;2023-02-01T05:48:10;17.38;;;4.68;;
25535;SDS011;13431;51.352;6.412;2023-02-01T05:50:38;23.08;;;5.15;;
25535;SDS011;13431;51.352;6.412;2023-02-01T05:53:08;17.25;;;5.50;;
25535;SDS011;13431;51.352;6.412;2023-02-01T05:55:35;14.75;;;5.10;;
25535;SDS011;13431;51.352;6.412;2023-02-01T05:58:04;14.57;;;4.50;;
25535;SDS011;13431;51.352;6.412;2023-02-01T06:00:32;18.60;;;4.80;;
25535;SDS011;13431;51.352;6.412;2023-02-01T06:02:59;18.42;;;5.40;;
25535;SDS011;13431;51.352;6.412;2023-02-01T06:05:27;21.42;;;4.88;;
25535;SDS011;13431;51.352;6.412;2023-02-01T06:07:54;16.45;;;5.25;;
25535;SDS011;13431;51.352;6.412;2023-02-01T06:10:22;17.80;;;4.65;;
25535;SDS011;13431;51.352;6.412;2023-02-01T06:12:49;22.52;;;4.88;;
25535;SDS011;13431;51.352;6.412;2023-02-01T06:15:17;19.85;;;4.50;;
25535;SDS011;13431;51.352;6.412;2023-02-01T06:17:45;15.50;;;4.18;;
25535;SDS011;13431;51.352;6.412;2023-02-01T06:20:13;15.50;;;5.40;;
25535;SDS011;13431;51.352;6.412;2023-02-01T06:22:42;17.27;;;4.85;;
25535;SDS011;13431;51.352;6.412;2023-02-01T06:25:09;16.83;;;4.43;;
25535;SDS011;13431;51.352;6.412;2023-02-01T06:27:37;23.17;;;5.38;;
25535;SDS011;13431;51.352;6.412;2023-02-01T06:30:05;21.77;;;5.97;;
25535;SDS011;13431;51.352;6.412;2023-02-01T06:32:34;21.67;;;5.03;;
25535;SDS011;13431;51.352;6.412;2023-02-01T06:35:01;17.20;;;4.43;;
25535;SDS011;13431;51.352;6.412;2023-02-01T06:37:28;18.00;;;5.03;;
25535;SDS011;13431;51.352;6.412;2023-02-01T06:39:56;16.52;;;4.78;;
25535;SDS011;13431;51.352;6.412;2023-02-01T06:42:23;22.85;;;5.32;;
25535;SDS011;13431;51.352;6.412;2023-02-01T06:44:50;16.05;;;5.00;;
25535;SDS011;13431;51.352;6.412;2023-02-01T06:47:18;12.20;;;4.15;;
25535;SDS011;13431;51.352;6.412;2023-02-01T06:49:45;14.27;;;4.82;;
25535;SDS011;13431;51.352;6.412;2023-02-01T06:52:13;12.95;;;3.85;;
25535;SDS011;13431;51.352;6.412;2023-02-01T06:54:40;13.10;;;4.53;;
25535;SDS011;13431;51.352;6.412;2023-02-01T06:57:07;14.93;;;4.20;;
25535;SDS011;13431;51.352;6.412;2023-02-01T06:59:34;19.63;;;4.82;;
25535;SDS011;13431;51.352;6.412;2023-02-01T07:02:02;14.82;;;4.25;;
25535;SDS011;13431;51.352;6.412;2023-02-01T07:04:29;14.23;;;4.95;;
25535;SDS011;13431;51.352;6.412;2023-02-01T07:06:56;17.88;;;4.57;;
25535;SDS011;13431;51.352;6.412;2023-02-01T07:09:24;20.73;;;5.65;;
25535;SDS011;13431;51.352;6.412;2023-02-01T07:11:51;15.18;;;4.70;;
25535;SDS011;13431;51.352;6.412;2023-02-01T07:14:19;13.85;;;4.00;;
25535;SDS011;13431;51.352;6.412;2023-02-01T07:16:46;15.43;;;5.90;;
25535;SDS011;13431;51.352;6.412;2023-02-01T07:19:14;17.80;;;4.47;;
25535;SDS011;13431;51.352;6.412;2023-02-01T07:21:41;15.43;;;5.68;;
25535;SDS011;13431;51.352;6.412;2023-02-01T07:24:08;18.25;;;4.93;;
25535;SDS011;13431;51.352;6.412;2023-02-01T07:26:36;15.13;;;5.32;;
25535;SDS011;13431;51.352;6.412;2023-02-01T07:29:03;16.90;;;5.07;;
25535;SDS011;13431;51.352;6.412;2023-02-01T07:31:30;18.30;;;4.78;;
25535;SDS011;13431;51.352;6.412;2023-02-01T07:33:58;15.00;;;5.32;;
25535;SDS011;13431;51.352;6.412;2023-02-01T07:36:25;18.33;;;4.82;;
25535;SDS011;13431;51.352;6.412;2023-02-01T07:38:52;16.38;;;5.10;;
25535;SDS011;13431;51.352;6.412;2023-02-01T07:41:22;14.15;;;4.30;;
25535;SDS011;13431;51.352;6.412;2023-02-01T07:43:52;15.32;;;5.30;;
25535;SDS011;13431;51.352;6.412;2023-02-01T07:46:20;17.10;;;4.55;;
25535;SDS011;13431;51.352;6.412;2023-02-01T07:48:47;18.48;;;5.05;;
25535;SDS011;13431;51.352;6.412;2023-02-01T07:51:15;19.13;;;4.78;;
25535;SDS011;13431;51.352;6.412;2023-02-01T07:53:44;12.20;;;4.10;;
25535;SDS011;13431;51.352;6.412;2023-02-01T07:56:15;16.42;;;4.93;;
25535;SDS011;13431;51.352;6.412;2023-02-01T07:58:48;18.10;;;4.95;;
25535;SDS011;13431;51.352;6.412;2023-02-01T08:01:18;14.38;;;4.20;;
25535;SDS011;13431;51.352;6.412;2023-02-01T08:03:48;16.40;;;5.05;;
25535;SDS011;13431;51.352;6.412;2023-02-01T08:06:17;12.15;;;4.03;;
25535;SDS011;13431;51.352;6.412;2023-02-01T08:08:46;14.13;;;4.85;;
25535;SDS011;13431;51.352;6.412;2023-02-01T08:11:15;16.80;;;4.28;;
25535;SDS011;13431;51.352;6.412;2023-02-01T08:13:44;23.15;;;4.90;;
25535;SDS011;13431;51.352;6.412;2023-02-01T08:16:12;18.35;;;4.43;;
25535;SDS011;13431;51.352;6.412;2023-02-01T08:18:41;15.40;;;4.68;;
25535;SDS011;13431;51.352;6.412;2023-02-01T08:21:11;18.55;;;4.90;;
25535;SDS011;13431;51.352;6.412;2023-02-01T08:23:43;16.20;;;4.90;;
25535;SDS011;13431;51.352;6.412;2023-02-01T08:26:12;15.85;;;4.03;;
25535;SDS011;13431;51.352;6.412;2023-02-01T08:28:46;21.20;;;5.13;;
25535;SDS011;13431;51.352;6.412;2023-02-01T08:31:18;12.05;;;3.60;;
25535;SDS011;13431;51.352;6.412;2023-02-01T08:33:49;20.98;;;4.40;;
25535;SDS011;13431;51.352;6.412;2023-02-01T08:36:18;16.88;;;5.80;;
25535;SDS011;13431;51.352;6.412;2023-02-01T08:38:46;15.48;;;5.20;;
25535;SDS011;13431;51.352;6.412;2023-02-01T08:41:15;13.45;;;4.13;;
25535;SDS011;13431;51.352;6.412;2023-02-01T08:43:44;17.88;;;5.63;;
25535;SDS011;13431;51.352;6.412;2023-02-01T08:46:12;16.00;;;5.20;;
25535;SDS011;13431;51.352;6.412;2023-02-01T08:48:39;19.25;;;5.53;;
25535;SDS011;13431;51.352;6.412;2023-02-01T08:51:09;15.10;;;4.22;;
25535;SDS011;13431;51.352;6.412;2023-02-01T08:53:38;15.38;;;4.53;;
25535;SDS011;13431;51.352;6.412;2023-02-01T08:56:08;20.17;;;5.35;;
25535;SDS011;13431;51.352;6.412;2023-02-01T08:58:37;17.98;;;5.55;;
25535;SDS011;13431;51.352;6.412;2023-02-01T09:01:05;17.02;;;4.43;;
25535;SDS011;13431;51.352;6.412;2023-02-01T09:03:35;13.18;;;3.63;;
25535;SDS011;13431;51.352;6.412;2023-02-01T09:06:04;18.52;;;4.13;;
25535;SDS011;13431;51.352;6.412;2023-02-01T09:08:33;19.92;;;5.07;;
25535;SDS011;13431;51.352;6.412;2023-02-01T09:11:02;16.60;;;4.70;;
25535;SDS011;13431;51.352;6.412;2023-02-01T09:13:36;16.25;;;4.90;;
25535;SDS011;13431;51.352;6.412;2023-02-01T09:16:04;17.50;;;5.40;;
25535;SDS011;13431;51.352;6.412;2023-02-01T09:18:32;12.48;;;3.97;;
25535;SDS011;13431;51.352;6.412;2023-02-01T09:21:03;16.85;;;4.75;;
25535;SDS011;13431;51.352;6.412;2023-02-01T09:23:32;14.77;;;4.00;;
25535;SDS011;13431;51.352;6.412;2023-02-01T09:26:03;10.13;;;4.90;;
25535;SDS011;13431;51.352;6.412;2023-02-01T09:28:31;19.23;;;5.53;;
25535;SDS011;13431;51.352;6.412;2023-02-01T09:30:59;17.15;;;4.80;;
25535;SDS011;13431;51.352;6.412;2023-02-01T09:33:28;15.48;;;4.72;;
25535;SDS011;13431;51.352;6.412;2023-02-01T09:35:58;19.70;;;5.43;;
25535;SDS011;13431;51.352;6.412;2023-02-01T09:38:27;15.23;;;3.72;;
25535;SDS011;13431;51.352;6.412;2023-02-01T09:40:56;12.85;;;5.38;;
25535;SDS011;13431;51.352;6.412;2023-02-01T09:48:53;13.90;;;4.68;;
25535;SDS011;13431;51.352;6.412;2023-02-01T09:51:25;16.13;;;4.07;;
25535;SDS011;13431;51.352;6.412;2023-02-01T09:54:02;17.48;;;4.18;;
25535;SDS011;13431;51.352;6.412;2023-02-01T09:56:44;16.00;;;4.53;;
25535;SDS011;13431;51.352;6.412;2023-02-01T10:02:03;11.57;;;4.55;;
25535;SDS011;13431;51.352;6.412;2023-02-01T10:04:37;17.40;;;4.78;;
25535;SDS011;13431;51.352;6.412;2023-02-01T10:26:49;12.40;;;4.20;;
25535;SDS011;13431;51.352;6.412;2023-02-01T10:29:24;11.30;;;4.45;;
25535;SDS011;13431;51.352;6.412;2023-02-01T10:31:56;21.60;;;5.13;;
25535;SDS011;13431;51.352;6.412;2023-02-01T10:34:28;14.73;;;4.15;;
25535;SDS011;13431;51.352;6.412;2023-02-01T10:37:11;12.30;;;4.60;;
25535;SDS011;13431;51.352;6.412;2023-02-01T10:39:52;15.23;;;5.03;;
25535;SDS011;13431;51.352;6.412;2023-02-01T10:42:24;15.77;;;3.83;;
25535;SDS011;13431;51.352;6.412;2023-02-01T10:44:54;13.52;;;4.60;;
25535;SDS011;13431;51.352;6.412;2023-02-01T10:47:25;14.32;;;4.25;;
25535;SDS011;13431;51.352;6.412;2023-02-01T10:50:05;11.50;;;4.25;;
25535;SDS011;13431;51.352;6.412;2023-02-01T10:52:48;14.32;;;4.47;;
25535;SDS011;13431;51.352;6.412;2023-02-01T10:58:01;14.73;;;4.18;;
25535;SDS011;13431;51.352;6.412;2023-02-01T11:00:37;10.75;;;3.90;;
25535;SDS011;13431;51.352;6.412;2023-02-01T11:03:28;19.85;;;3.80;;
25535;SDS011;13431;51.352;6.412;2023-02-01T11:06:09;16.05;;;4.65;;
25535;SDS011;13431;51.352;6.412;2023-02-01T11:08:45;15.23;;;4.30;;
25535;SDS011;13431;51.352;6.412;2023-02-01T11:11:21;12.18;;;4.72;;
25535;SDS011;13431;51.352;6.412;2023-02-01T11:13:53;16.48;;;5.03;;
25535;SDS011;13431;51.352;6.412;2023-02-01T11:16:30;15.25;;;4.30;;
25535;SDS011;13431;51.352;6.412;2023-02-01T11:19:02;16.40;;;5.22;;
25535;SDS011;13431;51.352;6.412;2023-02-01T11:21:30;17.63;;;5.22;;
25535;SDS011;13431;51.352;6.412;2023-02-01T11:24:02;12.65;;;4.63;;
25535;SDS011;13431;51.352;6.412;2023-02-01T11:26:32;17.08;;;5.05;;
25535;SDS011;13431;51.352;6.412;2023-02-01T11:29:03;11.93;;;4.00;;
25535;SDS011;13431;51.352;6.412;2023-02-01T11:31:36;18.45;;;5.05;;
25535;SDS011;13431;51.352;6.412;2023-02-01T11:34:14;16.17;;;4.90;;
25535;SDS011;13431;51.352;6.412;2023-02-01T11:36:48;14.77;;;4.75;;
25535;SDS011;13431;51.352;6.412;2023-02-01T11:44:31;19.50;;;5.18;;
25535;SDS011;13431;51.352;6.412;2023-02-01T11:50:02;14.73;;;3.90;;
25535;SDS011;13431;51.352;6.412;2023-02-01T11:55:15;11.40;;;4.18;;
25535;SDS011;13431;51.352;6.412;2023-02-01T12:00:41;12.18;;;5.07;;
25535;SDS011;13431;51.352;6.412;2023-02-01T12:06:45;17.10;;;4.88;;
25535;SDS011;13431;51.352;6.412;2023-02-01T12:12:28;15.25;;;4.28;;
25535;SDS011;13431;51.352;6.412;2023-02-01T12:23:23;10.20;;;3.17;;
25535;SDS011;13431;51.352;6.412;2023-02-01T12:25:57;12.18;;;3.50;;
25535;SDS011;13431;51.352;6.412;2023-02-01T12:31:23;8.18;;;2.83;;
25535;SDS011;13431;51.352;6.412;2023-02-01T12:36:48;15.40;;;3.13;;
25535;SDS011;13431;51.352;6.412;2023-02-01T12:42:41;13.35;;;3.90;;
25535;SDS011;13431;51.352;6.412;2023-02-01T12:45:20;11.07;;;3.17;;
25535;SDS011;13431;51.352;6.412;2023-02-01T12:47:57;6.88;;;2.30;;
25535;SDS011;13431;51.352;6.412;2023-02-01T12:50:56;9.25;;;3.10;;
25535;SDS011;13431;51.352;6.412;2023-02-01T12:56:20;10.45;;;2.50;;
25535;SDS011;13431;51.352;6.412;2023-02-01T12:59:10;12.93;;;5.20;;
25535;SDS011;13431;51.352;6.412;2023-02-01T13:05:05;12.00;;;2.75;;
25535;SDS011;13431;51.352;6.412;2023-02-01T13:07:58;13.55;;;3.40;;
25535;SDS011;13431;51.352;6.412;2023-02-01T13:13:18;10.88;;;2.55;;
25535;SDS011;13431;51.352;6.412;2023-02-01T13:18:26;9.95;;;2.95;;
25535;SDS011;13431;51.352;6.412;2023-02-01T13:23:34;6.97;;;2.30;;
25535;SDS011;13431;51.352;6.412;2023-02-01T13:26:04;10.18;;;2.72;;
25535;SDS011;13431;51.352;6.412;2023-02-01T13:28:39;13.85;;;3.03;;
25535;SDS011;13431;51.352;6.412;2023-02-01T13:42:51;9.40;;;3.50;;
25535;SDS011;13431;51.352;6.412;2023-02-01T13:45:31;7.70;;;2.20;;
25535;SDS011;13431;51.352;6.412;2023-02-01T13:48:03;16.30;;;2.72;;
25535;SDS011;13431;51.352;6.412;2023-02-01T13:50:36;9.38;;;3.67;;
25535;SDS011;13431;51.352;6.412;2023-02-01T13:55:38;13.80;;;3.20;;
25535;SDS011;13431;51.352;6.412;2023-02-01T14:00:47;11.38;;;2.40;;
25535;SDS011;13431;51.352;6.412;2023-02-01T14:03:21;10.85;;;3.05;;
25535;SDS011;13431;51.352;6.412;2023-02-01T14:06:17;10.88;;;3.70;;
25535;SDS011;13431;51.352;6.412;2023-02-01T14:09:05;10.52;;;3.03;;
25535;SDS011;13431;51.352;6.412;2023-02-01T14:16:42;9.20;;;2.60;;
25535;SDS011;13431;51.352;6.412;2023-02-01T14:19:25;19.27;;;3.97;;
25535;SDS011;13431;51.352;6.412;2023-02-01T14:22:30;10.85;;;4.55;;
25535;SDS011;13431;51.352;6.412;2023-02-01T14:24:51;13.10;;;4.25;;
25535;SDS011;13431;51.352;6.412;2023-02-01T14:27:22;12.95;;;3.13;;
25535;SDS011;13431;51.352;6.412;2023-02-01T14:29:52;12.07;;;2.83;;
25535;SDS011;13431;51.352;6.412;2023-02-01T14:32:30;11.07;;;3.15;;
25535;SDS011;13431;51.352;6.412;2023-02-01T14:35:05;13.55;;;6.93;;
25535;SDS011;13431;51.352;6.412;2023-02-01T14:37:35;8.93;;;2.55;;
25535;SDS011;13431;51.352;6.412;2023-02-01T14:50:42;10.23;;;2.55;;
25535;SDS011;13431;51.352;6.412;2023-02-01T14:56:04;17.15;;;2.95;;
25535;SDS011;13431;51.352;6.412;2023-02-01T14:58:40;12.30;;;3.65;;
25535;SDS011;13431;51.352;6.412;2023-02-01T15:01:28;20.25;;;3.45;;
25535;SDS011;13431;51.352;6.412;2023-02-01T15:04:38;10.43;;;3.20;;
25535;SDS011;13431;51.352;6.412;2023-02-01T15:06:53;12.82;;;3.35;;
25535;SDS011;13431;51.352;6.412;2023-02-01T15:09:32;11.70;;;3.17;;
25535;SDS011;13431;51.352;6.412;2023-02-01T15:12:04;11.02;;;3.65;;
25535;SDS011;13431;51.352;6.412;2023-02-01T15:14:39;13.35;;;3.15;;
25535;SDS011;13431;51.352;6.412;2023-02-01T15:17:17;12.02;;;3.33;;
25535;SDS011;13431;51.352;6.412;2023-02-01T15:19:57;15.57;;;4.15;;
25535;SDS011;13431;51.352;6.412;2023-02-01T15:22:30;10.95;;;3.20;;
25535;SDS011;13431;51.352;6.412;2023-02-01T15:24:59;11.30;;;4.00;;
25535;SDS011;13431;51.352;6.412;2023-02-01T15:27:27;9.63;;;3.40;;
25535;SDS011;13431;51.352;6.412;2023-02-01T15:32:47;12.82;;;3.35;;
25535;SDS011;13431;51.352;6.412;2023-02-01T15:35:35;18.45;;;4.57;;
25535;SDS011;13431;51.352;6.412;2023-02-01T15:46:29;12.98;;;3.03;;
25535;SDS011;13431;51.352;6.412;2023-02-01T15:49:05;18.27;;;5.28;;
25535;SDS011;13431;51.352;6.412;2023-02-01T15:51:50;13.57;;;3.92;;
25535;SDS011;13431;51.352;6.412;2023-02-01T15:54:20;15.23;;;4.07;;
25535;SDS011;13431;51.352;6.412;2023-02-01T15:56:55;17.98;;;3.83;;
25535;SDS011;13431;51.352;6.412;2023-02-01T15:59:28;15.80;;;4.43;;
25535;SDS011;13431;51.352;6.412;2023-02-01T16:02:29;16.52;;;4.13;;
25535;SDS011;13431;51.352;6.412;2023-02-01T16:05:02;13.27;;;4.25;;
25535;SDS011;13431;51.352;6.412;2023-02-01T16:07:31;15.98;;;4.18;;
25535;SDS011;13431;51.352;6.412;2023-02-01T16:10:01;14.57;;;3.90;;
25535;SDS011;13431;51.352;6.412;2023-02-01T16:12:47;14.27;;;3.95;;
25535;SDS011;13431;51.352;6.412;2023-02-01T16:15:15;11.45;;;3.33;;
25535;SDS011;13431;51.352;6.412;2023-02-01T16:17:42;13.57;;;4.53;;
25535;SDS011;13431;51.352;6.412;2023-02-01T16:20:10;12.95;;;2.90;;
25535;SDS011;13431;51.352;6.412;2023-02-01T16:22:38;12.27;;;3.80;;
25535;SDS011;13431;51.352;6.412;2023-02-01T16:25:05;11.65;;;2.92;;
25535;SDS011;13431;51.352;6.412;2023-02-01T16:27:33;12.65;;;3.60;;
25535;SDS011;13431;51.352;6.412;2023-02-01T16:30:00;10.07;;;2.90;;
25535;SDS011;13431;51.352;6.412;2023-02-01T16:32:28;11.90;;;3.45;;
25535;SDS011;13431;51.352;6.412;2023-02-01T16:34:57;12.73;;;3.78;;
25535;SDS011;13431;51.352;6.412;2023-02-01T16:37:24;16.63;;;3.88;;
25535;SDS011;13431;51.352;6.412;2023-02-01T16:39:54;11.30;;;3.75;;
25535;SDS011;13431;51.352;6.412;2023-02-01T16:42:22;13.77;;;3.55;;
25535;SDS011;13431;51.352;6.412;2023-02-01T16:44:49;14.20;;;3.35;;
25535;SDS011;13431;51.352;6.412;2023-02-01T16:47:18;15.02;;;4.20;;
25535;SDS011;13431;51.352;6.412;2023-02-01T16:49:49;14.65;;;4.95;;
25535;SDS011;13431;51.352;6.412;2023-02-01T16:52:24;15.38;;;2.83;;
25535;SDS011;13431;51.352;6.412;2023-02-01T16:54:52;12.27;;;3.53;;
25535;SDS011;13431;51.352;6.412;2023-02-01T16:57:20;14.50;;;3.70;;
25535;SDS011;13431;51.352;6.412;2023-02-01T16:59:52;14.35;;;3.58;;
25535;SDS011;13431;51.352;6.412;2023-02-01T17:02:20;10.93;;;3.38;;
25535;SDS011;13431;51.352;6.412;2023-02-01T17:04:48;12.52;;;3.55;;
25535;SDS011;13431;51.352;6.412;2023-02-01T17:07:16;15.88;;;3.95;;
25535;SDS011;13431;51.352;6.412;2023-02-01T17:09:45;12.73;;;3.67;;
25535;SDS011;13431;51.352;6.412;2023-02-01T17:12:27;10.48;;;3.60;;
25535;SDS011;13431;51.352;6.412;2023-02-01T17:14:59;11.88;;;4.28;;
25535;SDS011;13431;51.352;6.412;2023-02-01T17:17:28;13.63;;;3.58;;
25535;SDS011;13431;51.352;6.412;2023-02-01T17:20:05;14.68;;;4.25;;
25535;SDS011;13431;51.352;6.412;2023-02-01T17:22:33;19.70;;;4.38;;
25535;SDS011;13431;51.352;6.412;2023-02-01T17:25:00;17.15;;;3.80;;
25535;SDS011;13431;51.352;6.412;2023-02-01T17:27:28;13.48;;;3.20;;
25535;SDS011;13431;51.352;6.412;2023-02-01T17:29:55;14.60;;;3.17;;
25535;SDS011;13431;51.352;6.412;2023-02-01T17:32:23;12.48;;;4.03;;
25535;SDS011;13431;51.352;6.412;2023-02-01T17:34:51;10.60;;;3.13;;
25535;SDS011;13431;51.352;6.412;2023-02-01T17:37:30;10.20;;;3.10;;
25535;SDS011;13431;51.352;6.412;2023-02-01T17:39:59;14.55;;;4.63;;
25535;SDS011;13431;51.352;6.412;2023-02-01T17:42:27;19.00;;;4.72;;
25535;SDS011;13431;51.352;6.412;2023-02-01T17:44:56;11.98;;;3.63;;
25535;SDS011;13431;51.352;6.412;2023-02-01T17:47:26;15.57;;;3.53;;
25535;SDS011;13431;51.352;6.412;2023-02-01T17:49:54;15.27;;;5.30;;
25535;SDS011;13431;51.352;6.412;2023-02-01T17:52:23;14.27;;;4.95;;
25535;SDS011;13431;51.352;6.412;2023-02-01T17:54:52;10.27;;;3.85;;